createdAt,value
2023-02-05T00:01:25.726Z,96.50
2023-02-05T00:03:52.361Z,97.00
2023-02-05T00:06:19.035Z,96.80
2023-02-05T00:08:45.662Z,96.80
2023-02-05T00:11:12.850Z,96.10
2023-02-05T00:13:41.085Z,95.50
2023-02-05T00:16:18.061Z,95.30
2023-02-05T00:18:45.394Z,95.70
2023-02-05T00:21:12.498Z,96.60
2023-02-05T00:23:39.252Z,96.80
2023-02-05T00:26:07.037Z,96.70
2023-02-05T00:28:35.218Z,96.50
2023-02-05T00:31:06.757Z,96.30
2023-02-05T00:33:33.427Z,96.40
2023-02-05T00:36:00.146Z,96.30
2023-02-05T00:38:26.770Z,96.70
2023-02-05T00:40:53.531Z,96.80
2023-02-05T00:43:20.204Z,96.70
2023-02-05T00:45:47.343Z,96.70
2023-02-05T00:48:14.011Z,96.50
2023-02-05T00:50:40.847Z,96.60
2023-02-05T00:53:07.700Z,96.00
2023-02-05T00:55:35.161Z,95.40
2023-02-05T00:58:02.039Z,95.40
2023-02-05T01:00:28.871Z,95.70
2023-02-05T01:02:55.999Z,95.70
2023-02-05T01:05:22.664Z,95.70
2023-02-05T01:07:49.327Z,95.20
2023-02-05T01:10:16.531Z,95.10
2023-02-05T01:12:43.587Z,95.50
2023-02-05T01:15:12.639Z,95.50
2023-02-05T01:17:39.468Z,95.30
2023-02-05T01:20:06.783Z,95.10
2023-02-05T01:22:33.566Z,95.10
2023-02-05T01:25:00.286Z,95.20
2023-02-05T01:27:27.049Z,95.20
2023-02-05T01:29:53.835Z,95.10
2023-02-05T01:32:20.552Z,95.10
2023-02-05T01:34:47.626Z,95.10
2023-02-05T01:37:14.528Z,95.10
2023-02-05T01:39:41.928Z,94.60
2023-02-05T01:42:22.753Z,94.70
2023-02-05T01:45:35.378Z,94.80
2023-02-05T01:48:04.638Z,95.10
2023-02-05T01:50:43.835Z,95.50
2023-02-05T01:53:15.563Z,95.90
2023-02-05T01:55:51.831Z,95.90
2023-02-05T01:58:18.531Z,95.50
2023-02-05T02:00:46.690Z,95.50
2023-02-05T02:03:14.970Z,95.50
2023-02-05T02:05:41.689Z,95.30
2023-02-05T02:08:12.006Z,95.20
2023-02-05T02:10:41.828Z,95.60
2023-02-05T02:13:09.218Z,96.30
2023-02-05T02:15:36.450Z,96.30
2023-02-05T02:18:23.997Z,96.00
2023-02-05T02:21:00.216Z,96.00
2023-02-05T02:23:39.011Z,95.70
2023-02-05T02:26:44.661Z,96.10
2023-02-05T02:29:19.522Z,96.00
2023-02-05T02:31:56.770Z,95.80
2023-02-05T02:34:37.283Z,96.00
2023-02-05T02:37:09.041Z,96.40
2023-02-05T02:40:00.293Z,97.20
2023-02-05T02:42:39.503Z,97.60
2023-02-05T02:45:09.755Z,97.80
2023-02-05T02:47:47.891Z,97.80
2023-02-05T02:50:21.901Z,97.00
2023-02-05T02:52:52.217Z,96.50
2023-02-05T02:55:21.036Z,96.80
2023-02-05T02:57:51.445Z,96.70
2023-02-05T03:00:24.838Z,96.60
2023-02-05T03:02:58.182Z,96.90
2023-02-05T03:05:27.849Z,97.40
2023-02-05T03:08:00.063Z,97.20
2023-02-05T03:10:42.620Z,96.90
2023-02-05T03:13:11.179Z,97.10
2023-02-05T03:15:44.433Z,96.90
2023-02-05T03:18:13.750Z,96.50
2023-02-05T03:20:57.513Z,96.40
2023-02-05T03:23:26.722Z,96.10
2023-02-05T03:25:53.718Z,96.10
2023-02-05T03:28:26.147Z,96.30
2023-02-05T03:31:02.151Z,96.80
2023-02-05T03:34:07.746Z,96.80
2023-02-05T03:36:37.834Z,96.10
2023-02-05T03:39:18.953Z,96.80
2023-02-05T03:42:17.951Z,97.40
2023-02-05T03:44:51.682Z,97.60
2023-02-05T03:47:25.939Z,97.30
2023-02-05T03:50:02.378Z,97.30
2023-02-05T03:52:35.641Z,97.30
2023-02-05T03:55:14.944Z,97.70
2023-02-05T03:57:52.046Z,97.60
2023-02-05T04:00:19.218Z,97.60
2023-02-05T04:02:47.701Z,97.80
2023-02-05T04:05:23.025Z,97.80
2023-02-05T04:07:52.372Z,97.50
2023-02-05T04:10:22.338Z,97.10
2023-02-05T04:12:50.423Z,97.00
2023-02-05T04:15:18.246Z,96.90
2023-02-05T04:17:48.082Z,96.70
2023-02-05T04:20:14.900Z,96.60
2023-02-05T04:22:42.160Z,96.60
2023-02-05T04:25:09.155Z,96.30
2023-02-05T04:27:35.834Z,96.60
2023-02-05T04:30:03.983Z,96.40
2023-02-05T04:32:33.650Z,96.30
2023-02-05T04:35:01.019Z,96.30
2023-02-05T04:37:27.730Z,96.20
2023-02-05T04:39:54.413Z,96.20
2023-02-05T04:42:21.054Z,96.60
2023-02-05T04:44:47.700Z,96.60
2023-02-05T04:47:14.529Z,96.50
2023-02-05T04:49:41.208Z,96.00
2023-02-05T04:52:08.487Z,95.80
2023-02-05T04:54:37.039Z,96.10
2023-02-05T04:57:03.835Z,96.30
2023-02-05T04:59:31.536Z,96.30
2023-02-05T05:01:59.147Z,96.30
2023-02-05T05:04:26.090Z,96.30
2023-02-05T05:06:52.703Z,96.30
2023-02-05T05:09:20.908Z,95.80
2023-02-05T05:11:47.596Z,96.10
2023-02-05T05:14:14.265Z,96.10
2023-02-05T05:16:40.900Z,95.10
2023-02-05T05:19:07.551Z,95.90
2023-02-05T05:21:34.287Z,95.80
2023-02-05T05:24:01.021Z,96.40
2023-02-05T05:26:28.124Z,96.60
2023-02-05T05:28:56.033Z,97.00
2023-02-05T05:31:23.881Z,97.30
2023-02-05T05:33:51.051Z,97.10
2023-02-05T05:36:18.197Z,96.90
2023-02-05T05:38:45.364Z,96.50
2023-02-05T05:41:38.738Z,96.40
2023-02-05T05:44:05.377Z,96.40
2023-02-05T05:46:32.286Z,96.60
2023-02-05T05:49:00.631Z,96.10
2023-02-05T05:51:28.775Z,96.70
2023-02-05T05:53:55.637Z,96.50
2023-02-05T05:56:22.541Z,96.60
2023-02-05T05:58:50.139Z,96.60
2023-02-05T06:01:19.050Z,96.00
2023-02-05T06:03:45.696Z,95.70
2023-02-05T06:06:13.283Z,96.00
2023-02-05T06:08:39.941Z,95.80
2023-02-05T06:11:06.762Z,95.90
2023-02-05T06:13:34.705Z,96.10
2023-02-05T06:16:01.588Z,95.90
2023-02-05T06:18:28.310Z,96.40
2023-02-05T06:20:55.295Z,96.50
2023-02-05T06:23:22.027Z,96.80
2023-02-05T06:25:48.907Z,96.40
2023-02-05T06:28:15.608Z,96.50
2023-02-05T06:30:42.369Z,95.90
2023-02-05T06:33:09.016Z,96.10
2023-02-05T06:35:36.026Z,96.20
2023-02-05T06:38:03.042Z,96.20
2023-02-05T06:40:29.814Z,96.50
2023-02-05T06:42:56.752Z,96.20
2023-02-05T06:45:23.536Z,95.90
2023-02-05T06:47:52.719Z,96.30
2023-02-05T06:50:20.112Z,96.90
2023-02-05T06:52:47.193Z,96.80
2023-02-05T06:55:14.015Z,97.00
2023-02-05T06:57:40.646Z,96.70
2023-02-05T07:00:08.604Z,96.50
2023-02-05T07:02:35.303Z,96.30
2023-02-05T07:05:02.174Z,96.20
2023-02-05T07:07:28.946Z,95.90
2023-02-05T07:09:55.612Z,95.40
2023-02-05T07:12:22.393Z,95.60
2023-02-05T07:14:49.092Z,95.60
2023-02-05T07:17:15.873Z,95.40
2023-02-05T07:19:42.752Z,96.10
2023-02-05T07:22:10.773Z,95.80
2023-02-05T07:24:37.441Z,95.90
2023-02-05T07:27:04.153Z,95.60
2023-02-05T07:29:30.875Z,95.30
2023-02-05T07:31:57.702Z,95.40
2023-02-05T07:34:24.698Z,95.00
2023-02-05T07:36:52.586Z,95.30
2023-02-05T07:39:19.819Z,95.30
2023-02-05T07:41:46.560Z,96.00
2023-02-05T07:44:21.759Z,96.30
2023-02-05T07:46:48.811Z,95.90
2023-02-05T07:49:15.549Z,96.40
2023-02-05T07:51:42.255Z,97.00
2023-02-05T07:54:10.188Z,97.00
2023-02-05T07:56:37.030Z,96.50
2023-02-05T07:59:03.796Z,96.50
2023-02-05T08:01:30.458Z,97.00
2023-02-05T08:03:57.201Z,96.90
2023-02-05T08:06:26.975Z,96.50
2023-02-05T08:08:53.668Z,96.80
2023-02-05T08:11:20.405Z,96.80
2023-02-05T08:13:47.151Z,96.70
2023-02-05T08:16:15.847Z,97.10
2023-02-05T08:18:46.753Z,97.40
2023-02-05T08:21:13.449Z,96.70
2023-02-05T08:23:40.094Z,96.50
2023-02-05T08:26:06.755Z,96.70
2023-02-05T08:28:33.493Z,97.00
2023-02-05T08:31:00.223Z,96.80
2023-02-05T08:33:26.948Z,96.90
2023-02-05T08:35:53.693Z,96.40
2023-02-05T08:38:20.369Z,96.20
2023-02-05T08:40:47.089Z,97.20
2023-02-05T08:43:13.815Z,96.90
2023-02-05T08:45:40.618Z,97.30
2023-02-05T08:48:07.391Z,96.90
2023-02-05T08:50:34.062Z,96.60
2023-02-05T08:53:01.266Z,97.00
2023-02-05T08:55:28.354Z,97.00
2023-02-05T08:57:55.392Z,97.00
2023-02-05T09:00:22.206Z,97.10
2023-02-05T09:02:49.087Z,96.50
2023-02-05T09:05:15.791Z,96.60
2023-02-05T09:07:42.570Z,97.40
2023-02-05T09:10:11.624Z,96.90
2023-02-05T09:12:38.386Z,96.90
2023-02-05T09:15:07.229Z,97.10
2023-02-05T09:17:33.928Z,96.50
2023-02-05T09:20:00.706Z,97.10
2023-02-05T09:22:27.374Z,97.40
2023-02-05T09:24:54.092Z,97.00
2023-02-05T09:27:21.132Z,97.00
2023-02-05T09:29:47.782Z,97.00
2023-02-05T09:32:14.473Z,97.00
2023-02-05T09:34:41.278Z,97.30
2023-02-05T09:37:07.926Z,96.90
2023-02-05T09:40:18.434Z,97.20
2023-02-05T09:42:21.456Z,97.00
2023-02-05T09:45:06.209Z,96.80
2023-02-05T09:47:46.046Z,96.70
2023-02-05T09:50:29.862Z,96.90
2023-02-05T09:53:18.213Z,97.40
2023-02-05T09:55:47.197Z,98.20
2023-02-05T09:58:26.450Z,98.30
2023-02-05T10:01:12.448Z,98.30
2023-02-05T10:03:42.255Z,98.30
2023-02-05T10:06:26.856Z,97.60
2023-02-05T10:09:19.674Z,98.30
2023-02-05T10:12:00.198Z,98.30
2023-02-05T10:14:54.100Z,98.30
2023-02-05T10:17:45.804Z,98.30
2023-02-05T10:20:45.888Z,98.30
2023-02-05T10:23:31.195Z,97.60
2023-02-05T10:26:09.138Z,97.90
2023-02-05T10:28:38.661Z,97.90
2023-02-05T10:31:15.604Z,98.30
2023-02-05T10:33:56.607Z,98.30
2023-02-05T10:36:25.585Z,98.30
2023-02-05T10:38:56.614Z,98.30
2023-02-05T10:41:32.110Z,98.30
2023-02-05T10:44:17.740Z,98.30
2023-02-05T10:46:51.629Z,98.30
2023-02-05T10:49:33.434Z,98.30
2023-02-05T10:52:00.143Z,98.30
2023-02-05T10:54:29.568Z,98.30
2023-02-05T10:56:58.495Z,98.30
2023-02-05T10:59:31.567Z,98.30
2023-02-05T11:02:03.835Z,98.30
2023-02-05T11:04:35.319Z,98.30
2023-02-05T11:07:06.320Z,98.30
2023-02-05T11:09:35.027Z,98.30
2023-02-05T11:12:14.970Z,98.30
2023-02-05T11:14:45.820Z,98.30
2023-02-05T11:17:21.779Z,98.30
2023-02-05T11:19:55.533Z,98.30
2023-02-05T11:22:36.567Z,98.30
2023-02-05T11:25:29.822Z,98.30
2023-02-05T11:27:59.699Z,98.30
2023-02-05T11:30:51.829Z,98.30
2023-02-05T11:33:24.663Z,98.30
2023-02-05T11:36:06.813Z,98.30
2023-02-05T11:38:45.868Z,98.30
2023-02-05T11:41:25.674Z,98.30
2023-02-05T11:43:53.813Z,98.30
2023-02-05T11:46:23.416Z,98.30
2023-02-05T11:49:04.935Z,98.30
2023-02-05T11:51:40.532Z,98.30
2023-02-05T11:54:19.586Z,98.30
2023-02-05T11:57:05.268Z,98.30
2023-02-05T11:59:33.581Z,98.30
2023-02-05T12:02:25.457Z,98.30
2023-02-05T12:04:58.461Z,98.30
2023-02-05T12:07:29.676Z,98.30
2023-02-05T12:09:59.841Z,98.30
2023-02-05T12:13:02.475Z,98.30
2023-02-05T12:15:58.964Z,98.30
2023-02-05T12:18:50.389Z,98.30
2023-02-05T12:21:45.789Z,98.30
2023-02-05T12:24:38.151Z,98.30
2023-02-05T12:27:16.868Z,98.30
2023-02-05T12:29:54.292Z,98.30
2023-02-05T12:32:49.005Z,98.30
2023-02-05T12:35:18.444Z,98.30
2023-02-05T12:37:58.476Z,98.30
2023-02-05T12:40:43.421Z,98.30
2023-02-05T12:43:28.127Z,98.30
2023-02-05T12:45:58.412Z,98.30
2023-02-05T12:48:38.945Z,98.30
2023-02-05T12:51:21.443Z,98.30
2023-02-05T12:54:09.921Z,98.30
2023-02-05T12:56:49.030Z,98.30
2023-02-05T12:59:18.777Z,98.30
2023-02-05T13:01:56.772Z,98.30
2023-02-05T13:04:32.588Z,98.30
2023-02-05T13:07:12.672Z,98.30
2023-02-05T13:09:50.908Z,98.30
2023-02-05T13:12:23.251Z,98.30
2023-02-05T13:15:01.482Z,98.30
2023-02-05T13:17:31.006Z,98.30
2023-02-05T13:20:44.458Z,98.30
2023-02-05T13:23:31.088Z,98.30
2023-02-05T13:26:08.706Z,98.30
2023-02-05T13:28:49.656Z,98.30
2023-02-05T13:31:33.192Z,98.30
2023-02-05T13:34:05.551Z,98.30
2023-02-05T13:37:12.832Z,98.30
2023-02-05T13:40:19.620Z,98.30
2023-02-05T13:42:54.473Z,98.30
2023-02-05T13:45:53.882Z,98.30
2023-02-05T13:48:34.552Z,98.30
2023-02-05T13:51:43.014Z,98.30
2023-02-05T13:54:34.465Z,98.30
2023-02-05T13:57:20.177Z,98.30
2023-02-05T13:59:53.326Z,98.30
2023-02-05T14:02:25.765Z,98.30
2023-02-05T14:04:54.697Z,98.30
2023-02-05T14:07:28.831Z,98.30
2023-02-05T14:10:00.424Z,98.30
2023-02-05T14:12:34.029Z,98.30
2023-02-05T14:15:16.139Z,98.30
2023-02-05T14:17:42.753Z,98.30
2023-02-05T14:20:24.773Z,98.30
2023-02-05T14:23:00.953Z,98.30
2023-02-05T14:25:37.920Z,98.30
2023-02-05T14:28:16.634Z,98.30
2023-02-05T14:31:00.218Z,98.30
2023-02-05T14:33:43.812Z,98.30
2023-02-05T14:36:21.179Z,98.30
2023-02-05T14:38:50.809Z,98.30
2023-02-05T14:41:27.476Z,98.30
2023-02-05T14:44:16.530Z,98.30
2023-02-05T14:47:08.540Z,98.30
2023-02-05T14:49:47.044Z,98.30
2023-02-05T14:52:37.312Z,98.30
2023-02-05T14:55:12.979Z,98.30
2023-02-05T14:57:49.336Z,98.30
2023-02-05T15:00:29.915Z,98.30
2023-02-05T15:03:05.731Z,98.30
2023-02-05T15:06:07.306Z,98.30
2023-02-05T15:08:45.241Z,98.30
2023-02-05T15:11:34.883Z,98.30
2023-02-05T15:14:20.077Z,98.30
2023-02-05T15:17:07.225Z,98.30
2023-02-05T15:19:42.760Z,98.30
2023-02-05T15:22:35.303Z,98.30
2023-02-05T15:25:18.323Z,98.30
2023-02-05T15:27:55.377Z,98.30
2023-02-05T15:30:28.452Z,98.30
2023-02-05T15:33:01.847Z,98.30
2023-02-05T15:35:33.502Z,98.30
2023-02-05T15:38:03.085Z,98.30
2023-02-05T15:40:32.526Z,98.30
2023-02-05T15:43:21.322Z,98.30
2023-02-05T15:46:00.404Z,98.30
2023-02-05T15:48:30.512Z,98.30
2023-02-05T15:51:02.167Z,98.30
2023-02-05T15:53:46.007Z,98.30
2023-02-05T15:56:17.096Z,98.30
2023-02-05T15:58:52.881Z,98.30
2023-02-05T16:01:32.099Z,98.30
2023-02-05T16:03:58.931Z,98.30
2023-02-05T16:06:28.219Z,98.30
2023-02-05T16:08:55.568Z,98.30
2023-02-05T16:11:33.506Z,98.30
2023-02-05T16:14:04.118Z,98.30
2023-02-05T16:16:32.587Z,98.30
2023-02-05T16:19:01.330Z,98.30
2023-02-05T16:30:19.051Z,98.30
2023-02-05T16:32:47.313Z,98.30
2023-02-05T16:35:36.994Z,98.30
2023-02-05T16:38:08.922Z,98.30
2023-02-05T16:40:40.737Z,98.30
2023-02-05T16:43:18.867Z,98.30
2023-02-05T16:46:14.763Z,98.30
2023-02-05T16:48:49.097Z,98.30
2023-02-05T16:51:32.385Z,98.30
2023-02-05T16:54:01.230Z,98.30
2023-02-05T16:56:35.748Z,98.30
2023-02-05T16:59:04.082Z,98.30
2023-02-05T17:01:44.028Z,98.30
2023-02-05T17:04:35.614Z,98.30
2023-02-05T17:07:06.914Z,98.30
2023-02-05T17:09:35.237Z,98.30
2023-02-05T17:12:23.124Z,98.30
2023-02-05T17:14:54.419Z,98.30
2023-02-05T17:17:21.928Z,98.30
2023-02-05T17:20:14.960Z,98.30
2023-02-05T17:23:05.105Z,98.30
2023-02-05T17:25:37.948Z,98.30
2023-02-05T17:28:06.292Z,98.30
2023-02-05T17:30:34.310Z,98.30
2023-02-05T17:33:05.137Z,98.30
2023-02-05T17:35:33.758Z,98.30
2023-02-05T17:38:00.464Z,98.30
2023-02-05T17:40:27.413Z,98.30
2023-02-05T17:42:54.186Z,98.30
2023-02-05T17:45:27.083Z,98.30
2023-02-05T17:47:54.044Z,98.30
2023-02-05T17:50:20.936Z,98.30
2023-02-05T17:52:47.831Z,98.30
2023-02-05T17:55:20.626Z,98.30
2023-02-05T17:57:47.495Z,98.30
2023-02-05T18:00:18.730Z,98.30
2023-02-05T18:02:45.574Z,98.30
2023-02-05T18:05:12.590Z,98.30
2023-02-05T18:07:51.755Z,98.30
2023-02-05T18:10:23.750Z,98.30
2023-02-05T18:12:51.084Z,98.30
2023-02-05T18:15:18.310Z,98.30
2023-02-05T18:17:45.458Z,98.30
2023-02-05T18:20:13.602Z,98.30
2023-02-05T18:22:40.627Z,98.30
2023-02-05T18:25:08.572Z,98.30
2023-02-05T18:27:35.292Z,98.30
2023-02-05T18:30:02.046Z,98.30
2023-02-05T18:32:29.068Z,98.30
2023-02-05T18:34:55.718Z,98.30
2023-02-05T18:37:22.632Z,98.30
2023-02-05T18:39:50.693Z,98.30
2023-02-05T18:42:17.737Z,98.30
2023-02-05T18:44:44.488Z,98.30
2023-02-05T18:47:11.366Z,98.30
2023-02-05T18:49:38.050Z,98.30
2023-02-05T18:52:06.165Z,98.30
2023-02-05T18:54:33.161Z,98.30
2023-02-05T18:56:59.895Z,98.30
2023-02-05T18:59:26.591Z,98.30
2023-02-05T19:01:53.851Z,98.30
2023-02-05T19:04:20.974Z,98.30
2023-02-05T19:06:53.616Z,98.30
2023-02-05T19:09:22.480Z,98.30
2023-02-05T19:11:50.104Z,98.30
2023-02-05T19:14:19.768Z,98.30
2023-02-05T19:16:47.646Z,98.30
2023-02-05T19:19:17.410Z,98.30
2023-02-05T19:21:48.834Z,98.30
2023-02-05T19:24:17.281Z,98.30
2023-02-05T19:26:44.681Z,98.30
2023-02-05T19:29:16.974Z,98.30
2023-02-05T19:31:44.987Z,98.30
2023-02-05T19:34:12.425Z,98.30
2023-02-05T19:36:39.561Z,98.30
2023-02-05T19:39:08.350Z,98.30
2023-02-05T19:41:37.235Z,98.30
2023-02-05T19:44:06.476Z,98.30
2023-02-05T19:46:41.487Z,98.30
2023-02-05T19:49:16.048Z,98.30
2023-02-05T19:51:47.605Z,98.30
2023-02-05T19:54:15.187Z,98.30
2023-02-05T19:56:45.040Z,98.30
2023-02-05T19:59:12.828Z,98.30
2023-02-05T20:01:43.620Z,98.30
2023-02-05T20:04:17.174Z,98.30
2023-02-05T20:06:46.236Z,98.30
2023-02-05T20:09:14.398Z,98.30
2023-02-05T20:11:44.091Z,98.30
2023-02-05T20:14:11.526Z,98.30
2023-02-05T20:16:42.365Z,98.30
2023-02-05T20:19:12.603Z,98.30
2023-02-05T20:21:39.818Z,98.30
2023-02-05T20:24:07.427Z,98.30
2023-02-05T20:26:35.132Z,98.30
2023-02-05T20:29:20.389Z,98.30
2023-02-05T20:31:52.012Z,98.30
2023-02-05T20:34:25.761Z,98.30
2023-02-05T20:36:55.067Z,98.30
2023-02-05T20:39:23.795Z,98.30
2023-02-05T20:41:51.856Z,98.30
2023-02-05T20:44:19.345Z,98.30
2023-02-05T20:46:46.858Z,98.30
2023-02-05T20:49:14.468Z,98.30
2023-02-05T20:51:41.870Z,98.30
2023-02-05T20:54:08.956Z,98.30
2023-02-05T20:56:35.846Z,98.30
2023-02-05T20:59:05.213Z,98.30
2023-02-05T21:01:33.832Z,98.30
2023-02-05T21:04:03.840Z,98.30
2023-02-05T21:06:34.754Z,98.30
2023-02-05T21:09:01.858Z,98.30
2023-02-05T21:11:29.569Z,98.30
2023-02-05T21:13:57.970Z,98.30
2023-02-05T21:16:26.446Z,98.30
2023-02-05T21:18:53.847Z,98.30
2023-02-05T21:21:28.435Z,98.30
2023-02-05T21:23:56.820Z,98.30
2023-02-05T21:26:35.799Z,98.30
2023-02-05T21:29:13.261Z,98.30
2023-02-05T21:31:44.885Z,98.30
2023-02-05T21:34:14.993Z,98.30
2023-02-05T21:36:41.790Z,98.30
2023-02-05T21:39:11.889Z,98.30
2023-02-05T21:41:39.573Z,98.30
2023-02-05T21:44:06.272Z,98.30
2023-02-05T21:46:32.973Z,98.30
2023-02-05T21:49:00.810Z,98.30
2023-02-05T21:51:34.503Z,98.30
2023-02-05T21:54:04.684Z,98.30
2023-02-05T21:56:40.571Z,98.30
2023-02-05T21:59:08.315Z,98.30
2023-02-05T22:01:36.242Z,98.30
2023-02-05T22:04:08.887Z,98.30
2023-02-05T22:06:36.347Z,98.30
2023-02-05T22:09:06.600Z,98.30
2023-02-05T22:11:33.863Z,98.30
2023-02-05T22:14:00.636Z,98.30
2023-02-05T22:16:30.266Z,98.30
2023-02-05T22:18:58.133Z,98.30
2023-02-05T22:21:30.842Z,98.30
2023-02-05T22:23:59.308Z,98.30
2023-02-05T22:26:29.093Z,98.30
2023-02-05T22:28:59.046Z,98.30
2023-02-05T22:31:26.887Z,98.30
2023-02-05T22:33:53.916Z,98.30
2023-02-05T22:36:23.608Z,98.30
2023-02-05T22:38:51.405Z,98.30
2023-02-05T22:41:24.075Z,98.30
2023-02-05T22:43:51.462Z,98.30
2023-02-05T22:46:25.408Z,98.30
2023-02-05T22:48:53.443Z,98.30
2023-02-05T22:51:24.000Z,98.30
2023-02-05T22:53:52.680Z,98.30
2023-02-05T22:56:19.509Z,98.30
2023-02-05T22:58:47.498Z,98.20
2023-02-05T23:01:23.375Z,98.10
2023-02-05T23:03:51.821Z,98.20
2023-02-05T23:06:30.167Z,97.90
2023-02-05T23:09:02.511Z,97.90
2023-02-05T23:11:31.166Z,98.10
2023-02-05T23:13:59.336Z,98.00
2023-02-05T23:16:37.940Z,98.00
2023-02-05T23:19:08.887Z,97.90
2023-02-05T23:21:37.112Z,97.60
2023-02-05T23:24:04.746Z,97.40
2023-02-05T23:26:34.488Z,97.60
2023-02-05T23:29:01.296Z,97.90
2023-02-05T23:31:28.628Z,97.80
2023-02-05T23:33:55.432Z,97.80
2023-02-05T23:36:22.518Z,97.20
2023-02-05T23:38:49.628Z,97.70
2023-02-05T23:41:35.143Z,98.10
2023-02-05T23:44:11.021Z,98.30
2023-02-05T23:46:38.535Z,98.30
2023-02-05T23:49:05.781Z,98.30
2023-02-05T23:51:33.165Z,98.30
2023-02-05T23:54:00.162Z,98.30
2023-02-05T23:56:27.053Z,98.30
2023-02-05T23:58:53.718Z,98.30
